Time;durP1;ratioP1;P1;durP2;ratioP2;P2;SDS_P1;SDS_P2;PMS_P1;PMS_P2;Temp;Humidity;BMP_temperature;BMP_pressure;BME280_temperature;BME280_humidity;BME280_pressure;Samples;Min_cycle;Max_cycle;Signal;HPM_P1;HPM_P2
2021/01/14 00:00:24;;;;;;;2.93;1.13;;;1.50;99.90;;;;;;5016809;28;20289;-49
2021/01/14 00:02:49;;;;;;;4.43;1.60;;;1.50;99.90;;;;;;5020388;28;20318;-51
2021/01/14 00:05:15;;;;;;;1.40;1.17;;;1.50;99.90;;;;;;5024943;28;20204;-49
2021/01/14 00:07:41;;;;;;;1.40;1.10;;;1.50;99.90;;;;;;5025100;28;20254;-48
2021/01/14 00:10:08;;;;;;;4.50;1.70;;;1.50;99.90;;;;;;5015524;28;20287;-49
2021/01/14 00:12:34;;;;;;;2.30;0.53;;;1.50;99.90;;;;;;5003467;28;20204;-47
2021/01/14 00:15:00;;;;;;;2.53;1.20;;;1.50;99.90;;;;;;5012713;28;20195;-49
2021/01/14 00:17:26;;;;;;;2.53;1.50;;;1.40;99.90;;;;;;5013516;28;20887;-50
2021/01/14 00:19:51;;;;;;;4.30;1.33;;;1.40;99.90;;;;;;5025279;28;20257;-50
2021/01/14 00:22:17;;;;;;;1.53;1.37;;;1.40;99.90;;;;;;5023408;28;20572;-49
2021/01/14 00:24:42;;;;;;;7.33;1.80;;;1.30;99.90;;;;;;5020219;28;20195;-49
2021/01/14 00:27:09;;;;;;;3.90;1.70;;;1.30;99.90;;;;;;5024707;28;20329;-49
2021/01/14 00:29:35;;;;;;;1.60;1.27;;;1.20;99.90;;;;;;5023223;28;20906;-48
2021/01/14 00:32:00;;;;;;;6.37;1.73;;;1.10;99.90;;;;;;5014733;28;20188;-47
2021/01/14 00:34:26;;;;;;;4.80;2.03;;;1.10;99.90;;;;;;5013915;28;20197;-48
2021/01/14 00:39:35;;;;;;;3.43;1.60;;;1.00;99.90;;;;;;5023974;28;20209;-49
2021/01/14 00:42:01;;;;;;;2.73;1.53;;;1.00;99.90;;;;;;5022141;28;20192;-51
2021/01/14 00:44:26;;;;;;;3.60;1.70;;;1.00;99.90;;;;;;5019629;28;20184;-48
2021/01/14 00:46:56;;;;;;;6.00;1.57;;;1.00;99.90;;;;;;5002074;28;20193;-49
2021/01/14 00:49:23;;;;;;;7.67;2.23;;;1.00;99.90;;;;;;5012575;28;20194;-50
2021/01/14 00:51:49;;;;;;;3.07;1.87;;;1.10;99.90;;;;;;5025092;28;20228;-49
2021/01/14 00:54:14;;;;;;;4.57;1.80;;;1.10;99.90;;;;;;5022523;28;20193;-47
2021/01/14 00:56:40;;;;;;;3.97;2.07;;;1.10;99.90;;;;;;5016947;28;20321;-52
2021/01/14 00:59:06;;;;;;;2.93;2.13;;;1.10;99.90;;;;;;5022959;28;20219;-50
2021/01/14 01:01:32;;;;;;;3.00;1.67;;;1.10;99.90;;;;;;5008678;28;20286;-45
2021/01/14 01:03:58;;;;;;;5.67;2.00;;;1.10;99.90;;;;;;5014306;28;20199;-46
2021/01/14 01:06:32;;;;;;;4.27;1.97;;;1.10;99.90;;;;;;5018983;28;20936;-46
2021/01/14 01:08:58;;;;;;;4.27;2.70;;;1.10;99.90;;;;;;5023014;28;20248;-45
2021/01/14 01:11:24;;;;;;;3.80;2.23;;;1.10;99.90;;;;;;5014903;28;20921;-54
2021/01/14 01:13:50;;;;;;;3.50;2.07;;;1.10;99.90;;;;;;5022475;28;20204;-46
2021/01/14 01:16:16;;;;;;;2.10;1.87;;;1.10;99.90;;;;;;5004577;28;20352;-55
2021/01/14 01:18:42;;;;;;;3.30;2.00;;;1.00;99.90;;;;;;5008905;28;20258;-46
2021/01/14 01:21:07;;;;;;;1.67;1.53;;;1.00;99.90;;;;;;5006901;28;20720;-53
2021/01/14 01:23:33;;;;;;;2.03;1.50;;;1.00;99.90;;;;;;4999858;28;20643;-50
2021/01/14 01:25:58;;;;;;;2.87;2.03;;;1.10;99.90;;;;;;5006398;28;20227;-45
2021/01/14 01:28:24;;;;;;;2.07;1.80;;;1.10;99.90;;;;;;5016474;28;20230;-45
2021/01/14 01:30:49;;;;;;;3.87;2.27;;;1.10;99.90;;;;;;5026158;28;20182;-50
2021/01/14 01:33:15;;;;;;;3.37;2.17;;;1.10;99.90;;;;;;5011653;28;20691;-55
2021/01/14 01:35:40;;;;;;;1.97;1.70;;;1.10;99.90;;;;;;5013141;28;20198;-43
2021/01/14 01:38:06;;;;;;;2.73;1.97;;;1.10;99.90;;;;;;5006072;28;20179;-51
2021/01/14 01:40:31;;;;;;;2.37;1.80;;;1.10;99.90;;;;;;5002467;28;20191;-44
2021/01/14 01:42:57;;;;;;;3.97;2.13;;;1.10;99.90;;;;;;5008050;28;20628;-44
2021/01/14 01:45:23;;;;;;;2.30;1.87;;;1.10;99.90;;;;;;5013599;28;20346;-53
2021/01/14 01:47:49;;;;;;;2.77;1.70;;;1.10;99.90;;;;;;5013973;28;20241;-44
2021/01/14 01:50:15;;;;;;;2.10;1.67;;;1.10;99.90;;;;;;5014980;28;20259;-51
2021/01/14 01:52:40;;;;;;;2.60;1.70;;;1.10;99.90;;;;;;5024062;28;20190;-46
2021/01/14 01:55:07;;;;;;;3.17;1.87;;;1.10;99.90;;;;;;5025125;28;20183;-53
2021/01/14 01:57:33;;;;;;;2.07;1.80;;;1.10;99.90;;;;;;5018617;28;20964;-45
2021/01/14 01:59:58;;;;;;;1.90;1.80;;;1.10;99.90;;;;;;5025092;28;20344;-48
2021/01/14 02:02:26;;;;;;;1.67;1.50;;;1.10;99.90;;;;;;5009524;28;20420;-55
2021/01/14 02:04:52;;;;;;;2.13;1.83;;;1.10;99.90;;;;;;5013701;28;20632;-44
2021/01/14 02:07:36;;;;;;;1.93;1.60;;;1.10;99.90;;;;;;5019674;28;20178;-54
2021/01/14 02:10:13;;;;;;;2.30;2.00;;;1.10;99.90;;;;;;5025316;28;20228;-45
2021/01/14 02:12:56;;;;;;;1.90;1.40;;;1.10;99.90;;;;;;5023560;28;20209;-48
2021/01/14 02:15:22;;;;;;;3.03;2.00;;;1.10;99.90;;;;;;5007218;28;20193;-53
2021/01/14 02:17:51;;;;;;;2.93;1.83;;;1.10;99.90;;;;;;5020295;28;20669;-45
2021/01/14 02:20:19;;;;;;;3.07;2.00;;;1.10;99.90;;;;;;4994143;28;20581;-53
2021/01/14 02:22:50;;;;;;;2.37;1.23;;;1.10;99.90;;;;;;5010896;28;20207;-49
2021/01/14 02:25:31;;;;;;;3.03;1.87;;;1.10;99.90;;;;;;5001797;28;20182;-53
2021/01/14 02:27:58;;;;;;;2.83;2.13;;;1.20;99.90;;;;;;5004609;28;20230;-48
2021/01/14 02:30:24;;;;;;;1.87;1.70;;;1.20;99.90;;;;;;5006994;28;20191;-48
2021/01/14 02:32:49;;;;;;;6.07;1.90;;;1.20;99.90;;;;;;5025145;28;20286;-45
2021/01/14 02:35:15;;;;;;;3.40;1.83;;;1.20;99.90;;;;;;5009786;28;20693;-53
2021/01/14 02:37:40;;;;;;;2.43;2.00;;;1.20;99.90;;;;;;5014974;28;20171;-45
2021/01/14 02:40:07;;;;;;;2.13;1.73;;;1.20;99.90;;;;;;5024285;28;20567;-54
2021/01/14 02:42:32;;;;;;;3.00;2.20;;;1.20;99.90;;;;;;5021688;28;20202;-45
2021/01/14 02:44:58;;;;;;;2.63;2.17;;;1.20;99.90;;;;;;5020087;28;20185;-48
2021/01/14 02:47:24;;;;;;;4.70;2.17;;;1.30;99.90;;;;;;5003036;28;20178;-46
2021/01/14 02:49:55;;;;;;;3.83;2.23;;;1.30;99.90;;;;;;4998776;28;20220;-46
2021/01/14 02:52:22;;;;;;;3.30;2.30;;;1.30;99.90;;;;;;5012769;28;20199;-51
2021/01/14 02:54:49;;;;;;;4.03;2.13;;;1.30;99.90;;;;;;5024523;28;20202;-45
2021/01/14 02:57:17;;;;;;;2.00;1.90;;;1.30;99.90;;;;;;5022444;28;20175;-51
2021/01/14 02:59:44;;;;;;;4.07;2.30;;;1.30;99.90;;;;;;5022937;28;20224;-46
2021/01/14 03:02:09;;;;;;;4.10;1.87;;;1.30;99.90;;;;;;5018919;28;20204;-53
2021/01/14 03:04:34;;;;;;;4.07;2.30;;;1.30;99.90;;;;;;5021525;28;20914;-45
2021/01/14 03:07:00;;;;;;;3.40;2.43;;;1.30;99.90;;;;;;5005313;28;20265;-50
2021/01/14 03:09:25;;;;;;;5.67;2.43;;;1.30;99.90;;;;;;5011523;28;20179;-45
2021/01/14 03:11:51;;;;;;;3.27;2.57;;;1.30;99.90;;;;;;5024464;28;20183;-45
2021/01/14 03:14:16;;;;;;;2.87;2.33;;;1.30;99.90;;;;;;5021481;28;20530;-56
2021/01/14 03:16:42;;;;;;;4.07;2.33;;;1.30;99.90;;;;;;5010445;28;20192;-46
2021/01/14 03:19:07;;;;;;;3.30;2.87;;;1.30;99.90;;;;;;5022836;28;20203;-53
2021/01/14 03:21:33;;;;;;;3.23;2.40;;;1.30;99.90;;;;;;5009424;28;20230;-44
2021/01/14 03:23:59;;;;;;;5.40;2.73;;;1.30;99.90;;;;;;5018202;28;20184;-47
2021/01/14 03:26:24;;;;;;;7.60;3.23;;;1.30;99.90;;;;;;5017737;28;20186;-47
2021/01/14 03:28:50;;;;;;;5.13;2.73;;;1.30;99.90;;;;;;5023884;28;20824;-44
2021/01/14 03:31:16;;;;;;;4.90;2.23;;;1.30;99.90;;;;;;5019628;28;20645;-54
2021/01/14 03:33:43;;;;;;;3.33;2.27;;;1.30;99.90;;;;;;5020392;28;20765;-44
2021/01/14 03:36:13;;;;;;;3.97;2.33;;;1.30;99.90;;;;;;5019583;28;20238;-56
2021/01/14 03:38:38;;;;;;;4.67;2.80;;;1.40;99.90;;;;;;5012836;28;20289;-47
2021/01/14 03:41:14;;;;;;;5.00;2.93;;;1.40;99.90;;;;;;5018573;28;20588;-53
2021/01/14 03:43:40;;;;;;;3.50;2.60;;;1.40;99.90;;;;;;5021956;28;20308;-45
2021/01/14 03:46:11;;;;;;;6.47;3.33;;;1.40;99.90;;;;;;5015015;28;20180;-53
2021/01/14 03:48:39;;;;;;;7.40;3.50;;;1.40;99.90;;;;;;5016352;28;20184;-45
2021/01/14 03:51:12;;;;;;;4.73;2.97;;;1.40;99.90;;;;;;5022715;28;20190;-56
2021/01/14 03:53:37;;;;;;;3.57;2.93;;;1.40;99.90;;;;;;5018959;28;20247;-49
2021/01/14 03:56:03;;;;;;;5.30;3.23;;;1.40;99.90;;;;;;5018371;28;20180;-45
2021/01/14 03:58:28;;;;;;;3.30;2.60;;;1.40;99.90;;;;;;5019464;28;20303;-45
2021/01/14 04:00:54;;;;;;;6.23;3.70;;;1.40;99.90;;;;;;5023002;28;20293;-47
2021/01/14 04:03:19;;;;;;;9.97;3.30;;;1.40;99.90;;;;;;5015722;28;20215;-53
2021/01/14 04:05:48;;;;;;;4.60;3.43;;;1.50;99.90;;;;;;5022563;28;20214;-45
2021/01/14 04:08:13;;;;;;;7.13;3.73;;;1.50;99.90;;;;;;5009340;28;20815;-52
2021/01/14 04:10:39;;;;;;;5.23;3.57;;;1.50;99.90;;;;;;5012883;28;20262;-47
2021/01/14 04:13:04;;;;;;;6.90;3.57;;;1.50;99.90;;;;;;5022858;28;20949;-54
2021/01/14 04:15:30;;;;;;;4.67;3.13;;;1.50;99.90;;;;;;5011205;28;20180;-48
2021/01/14 04:17:55;;;;;;;10.30;4.10;;;1.50;99.90;;;;;;5023656;28;20286;-44
2021/01/14 04:20:21;;;;;;;7.60;3.70;;;1.50;99.90;;;;;;5014493;28;20226;-53
2021/01/14 04:22:49;;;;;;;5.77;2.80;;;1.50;99.90;;;;;;5022930;28;20211;-50
2021/01/14 04:25:15;;;;;;;4.60;3.30;;;1.50;99.90;;;;;;4999089;28;20229;-46
2021/01/14 04:27:40;;;;;;;4.17;2.90;;;1.50;99.90;;;;;;5001952;28;20212;-47
2021/01/14 04:30:06;;;;;;;4.33;3.20;;;1.50;99.90;;;;;;5002699;28;20219;-47
2021/01/14 04:32:32;;;;;;;7.60;3.87;;;1.50;99.90;;;;;;5013145;28;20210;-45
2021/01/14 04:34:58;;;;;;;7.13;3.67;;;1.50;99.90;;;;;;5018051;28;20202;-46
2021/01/14 04:37:23;;;;;;;7.17;4.07;;;1.50;99.90;;;;;;5020023;28;20187;-52
2021/01/14 04:39:49;;;;;;;8.80;4.13;;;1.50;99.90;;;;;;5009077;28;20906;-48
2021/01/14 04:42:17;;;;;;;8.27;4.10;;;1.50;99.90;;;;;;5013856;28;20229;-53
2021/01/14 04:44:43;;;;;;;13.77;4.43;;;1.60;99.90;;;;;;5016687;28;20173;-49
2021/01/14 04:47:13;;;;;;;7.80;3.83;;;1.60;99.90;;;;;;5013961;28;20211;-44
2021/01/14 04:49:40;;;;;;;8.23;4.33;;;1.60;99.90;;;;;;5015125;28;21091;-49
2021/01/14 04:52:12;;;;;;;7.43;4.30;;;1.60;99.90;;;;;;5023213;28;20203;-46
2021/01/14 04:54:42;;;;;;;9.23;5.30;;;1.60;99.90;;;;;;5007684;28;20925;-46
2021/01/14 04:57:20;;;;;;;10.03;4.93;;;1.60;99.90;;;;;;5014585;28;20188;-46
2021/01/14 04:59:50;;;;;;;7.63;4.47;;;1.60;99.90;;;;;;5022404;28;20261;-45
2021/01/14 05:02:21;;;;;;;10.53;4.73;;;1.60;99.90;;;;;;5013372;28;20217;-52
2021/01/14 05:04:49;;;;;;;5.53;4.20;;;1.60;99.90;;;;;;5004969;28;20172;-45
2021/01/14 05:07:20;;;;;;;6.37;4.40;;;1.60;99.90;;;;;;5013836;28;20859;-52
2021/01/14 05:09:46;;;;;;;10.20;4.80;;;1.60;99.90;;;;;;5012733;28;20246;-48
2021/01/14 05:12:17;;;;;;;7.57;4.10;;;1.60;99.90;;;;;;5018021;28;20700;-52
2021/01/14 05:14:43;;;;;;;7.70;4.63;;;1.60;99.90;;;;;;5015589;28;20173;-46
2021/01/14 05:17:10;;;;;;;8.37;4.33;;;1.60;99.90;;;;;;5022357;28;20600;-44
2021/01/14 05:19:35;;;;;;;8.13;4.63;;;1.60;99.90;;;;;;5017744;28;20317;-44
2021/01/14 05:22:06;;;;;;;10.20;4.17;;;1.70;99.90;;;;;;5016337;28;20662;-45
2021/01/14 05:24:32;;;;;;;8.30;4.43;;;1.70;99.90;;;;;;5001886;28;20187;-46
2021/01/14 05:26:57;;;;;;;6.80;3.77;;;1.70;99.90;;;;;;5014922;28;20172;-45
2021/01/14 05:29:23;;;;;;;7.90;4.30;;;1.70;99.90;;;;;;5020973;28;20176;-49
2021/01/14 05:31:50;;;;;;;7.50;4.13;;;1.70;99.90;;;;;;5025024;28;20849;-46
2021/01/14 05:34:17;;;;;;;7.07;4.10;;;1.70;99.90;;;;;;5019585;28;20200;-52
2021/01/14 05:36:57;;;;;;;5.67;3.60;;;1.70;99.90;;;;;;5019157;28;20203;-50
2021/01/14 05:39:23;;;;;;;8.47;4.47;;;1.70;99.90;;;;;;5018841;28;20766;-52
2021/01/14 05:41:50;;;;;;;5.67;3.50;;;1.70;99.90;;;;;;5013504;28;20203;-44
2021/01/14 05:44:16;;;;;;;5.50;4.13;;;1.80;99.90;;;;;;5019794;28;20648;-52
2021/01/14 05:46:42;;;;;;;12.67;5.00;;;1.80;99.90;;;;;;5015304;28;20191;-44
2021/01/14 05:49:10;;;;;;;6.67;4.20;;;1.80;99.90;;;;;;5020973;28;20242;-44
2021/01/14 05:51:36;;;;;;;7.27;4.20;;;1.80;99.90;;;;;;5017451;28;20786;-44
2021/01/14 05:54:03;;;;;;;8.13;4.17;;;1.70;99.90;;;;;;5021001;28;20208;-45
2021/01/14 05:56:47;;;;;;;5.27;3.40;;;1.80;99.90;;;;;;5011727;28;20187;-51
2021/01/14 05:59:15;;;;;;;4.63;3.70;;;1.80;99.90;;;;;;5013417;28;20216;-53
2021/01/14 06:01:57;;;;;;;9.47;3.97;;;1.70;99.90;;;;;;5014853;28;20647;-51
2021/01/14 06:04:24;;;;;;;6.17;3.47;;;1.80;99.90;;;;;;5021181;28;20695;-44
2021/01/14 06:06:52;;;;;;;8.53;3.90;;;1.80;99.90;;;;;;5010036;28;20514;-53
2021/01/14 06:09:19;;;;;;;9.00;4.03;;;1.70;99.90;;;;;;5020945;28;20302;-47
2021/01/14 06:11:46;;;;;;;4.70;3.43;;;1.70;99.90;;;;;;5014546;28;20847;-54
2021/01/14 06:14:25;;;;;;;6.07;3.37;;;1.70;99.90;;;;;;5016383;28;20783;-45
2021/01/14 06:16:51;;;;;;;6.67;3.67;;;1.80;99.90;;;;;;5014836;28;20656;-55
2021/01/14 06:19:17;;;;;;;6.03;3.67;;;1.70;99.90;;;;;;5020898;28;20211;-45
2021/01/14 06:21:47;;;;;;;6.70;3.77;;;1.80;99.90;;;;;;5023526;28;20203;-54
2021/01/14 06:24:27;;;;;;;5.07;3.40;;;1.80;99.90;;;;;;5016168;28;20203;-47
2021/01/14 06:26:57;;;;;;;5.67;3.57;;;1.80;99.90;;;;;;5009125;28;20587;-51
2021/01/14 06:29:27;;;;;;;5.37;3.63;;;1.80;99.90;;;;;;5016258;28;20269;-45
2021/01/14 06:32:09;;;;;;;6.17;3.47;;;1.80;99.90;;;;;;5001155;28;20245;-44
2021/01/14 06:34:38;;;;;;;6.00;3.80;;;1.80;99.90;;;;;;5016265;28;20191;-52
2021/01/14 06:37:19;;;;;;;4.60;3.80;;;1.80;99.90;;;;;;5020998;28;20175;-44
2021/01/14 06:39:50;;;;;;;6.93;4.00;;;1.70;99.90;;;;;;5016894;28;20219;-53
2021/01/14 06:42:27;;;;;;;9.13;3.70;;;1.70;99.90;;;;;;5024849;28;20438;-50
2021/01/14 06:44:53;;;;;;;4.37;3.40;;;1.70;99.90;;;;;;5004023;28;20181;-44
2021/01/14 06:47:47;;;;;;;6.47;3.67;;;1.70;99.90;;;;;;5015251;28;20187;-53
2021/01/14 06:50:16;;;;;;;10.53;3.63;;;1.70;99.90;;;;;;5011423;28;20199;-55
2021/01/14 06:53:02;;;;;;;5.43;3.47;;;1.70;99.90;;;;;;5014336;28;20304;-48
2021/01/14 06:55:38;;;;;;;8.07;3.67;;;1.70;99.90;;;;;;5015091;28;20191;-51
2021/01/14 06:58:07;;;;;;;4.47;3.57;;;1.70;99.90;;;;;;4991982;28;20216;-56
2021/01/14 07:00:45;;;;;;;5.30;4.03;;;1.70;99.90;;;;;;5022765;28;20707;-47
2021/01/14 07:03:16;;;;;;;4.87;3.97;;;1.70;99.90;;;;;;5014808;28;20198;-49
2021/01/14 07:05:58;;;;;;;5.90;3.70;;;1.60;99.90;;;;;;5019635;28;20199;-47
2021/01/14 07:09:00;;;;;;;6.40;3.87;;;1.60;99.90;;;;;;5018506;28;20219;-52
2021/01/14 07:11:32;;;;;;;5.53;3.70;;;1.60;99.90;;;;;;5005984;28;20389;-46
2021/01/14 07:14:11;;;;;;;7.70;3.80;;;1.60;99.90;;;;;;5004661;28;20213;-52
2021/01/14 07:16:41;;;;;;;6.63;4.10;;;1.60;99.90;;;;;;5011008;28;20179;-48
2021/01/14 07:19:08;;;;;;;6.30;4.20;;;1.60;99.90;;;;;;5013912;28;20229;-51
2021/01/14 07:21:53;;;;;;;8.63;4.30;;;1.60;99.90;;;;;;5018928;28;20190;-48
2021/01/14 07:24:23;;;;;;;6.87;3.80;;;1.50;99.90;;;;;;5015908;28;20202;-46
2021/01/14 07:26:57;;;;;;;8.60;4.10;;;1.50;99.90;;;;;;5022503;28;20165;-52
2021/01/14 07:29:24;;;;;;;7.23;4.03;;;1.50;99.90;;;;;;5003937;28;20218;-49
2021/01/14 07:32:00;;;;;;;5.73;3.87;;;1.50;99.90;;;;;;5011271;28;20326;-48
2021/01/14 07:34:42;;;;;;;7.93;4.33;;;1.50;99.90;;;;;;5013806;28;20609;-48
2021/01/14 07:37:17;;;;;;;5.20;3.70;;;1.50;99.90;;;;;;5011037;28;20253;-48
2021/01/14 07:39:57;;;;;;;6.87;4.07;;;1.50;99.90;;;;;;5015196;28;20233;-46
2021/01/14 07:42:31;;;;;;;5.43;3.67;;;1.50;99.90;;;;;;5018130;28;20203;-47
2021/01/14 07:45:13;;;;;;;6.33;3.70;;;1.50;99.90;;;;;;5008890;28;20195;-50
2021/01/14 07:47:39;;;;;;;7.07;4.30;;;1.50;99.90;;;;;;5013697;28;20266;-50
2021/01/14 07:50:26;;;;;;;5.87;3.87;;;1.50;99.90;;;;;;5005628;28;20640;-51
2021/01/14 07:52:54;;;;;;;5.70;3.90;;;1.50;99.90;;;;;;5000278;28;20237;-46
2021/01/14 07:55:26;;;;;;;7.87;4.00;;;1.50;99.90;;;;;;5010644;28;20189;-48
2021/01/14 07:58:31;;;;;;;6.77;3.63;;;1.50;99.90;;;;;;5014666;28;20202;-48
2021/01/14 08:01:00;;;;;;;7.13;4.13;;;1.50;99.90;;;;;;4958253;28;20744;-50
2021/01/14 08:03:32;;;;;;;5.30;4.17;;;1.50;99.90;;;;;;4967977;28;20641;-51
2021/01/14 08:05:58;;;;;;;7.63;3.90;;;1.50;99.90;;;;;;4984858;28;20664;-47
2021/01/14 08:08:29;;;;;;;6.20;4.00;;;1.50;99.90;;;;;;5013716;28;20192;-51
2021/01/14 08:11:19;;;;;;;7.20;3.90;;;1.60;99.90;;;;;;5022127;28;20605;-50
2021/01/14 08:14:06;;;;;;;5.70;3.90;;;1.60;99.90;;;;;;5016096;28;20236;-47
2021/01/14 08:16:35;;;;;;;9.27;4.23;;;1.70;99.90;;;;;;4998292;28;20209;-51
2021/01/14 08:19:08;;;;;;;5.77;3.57;;;1.70;99.90;;;;;;5010707;28;20181;-47
2021/01/14 08:21:34;;;;;;;5.63;3.37;;;1.80;99.90;;;;;;5003829;28;20905;-46
2021/01/14 08:24:01;;;;;;;4.73;3.30;;;1.80;99.90;;;;;;5012298;28;20218;-46
2021/01/14 08:26:27;;;;;;;8.97;3.87;;;1.80;99.90;;;;;;5019748;28;20836;-50
2021/01/14 08:29:02;;;;;;;4.57;3.90;;;1.80;99.90;;;;;;5011294;28;20195;-45
2021/01/14 08:31:37;;;;;;;3.97;3.50;;;1.80;99.90;;;;;;5008349;28;20190;-50
2021/01/14 08:34:06;;;;;;;6.10;3.93;;;1.80;99.90;;;;;;5013189;28;20203;-46
2021/01/14 08:36:41;;;;;;;5.83;3.40;;;1.80;99.90;;;;;;5016650;28;20201;-50
2021/01/14 08:39:09;;;;;;;6.57;3.73;;;1.90;99.90;;;;;;5021924;28;20690;-46
2021/01/14 08:41:37;;;;;;;8.00;4.73;;;1.90;99.90;;;;;;5024462;28;20809;-47
2021/01/14 08:44:04;;;;;;;4.27;3.33;;;1.90;99.90;;;;;;5024664;28;20231;-49
2021/01/14 08:46:40;;;;;;;7.83;3.87;;;1.90;99.90;;;;;;5018028;28;20223;-52
2021/01/14 08:49:17;;;;;;;5.27;3.43;;;1.90;99.90;;;;;;5014547;28;20202;-48
2021/01/14 08:51:43;;;;;;;8.50;4.33;;;1.90;99.90;;;;;;5019597;28;20222;-46
2021/01/14 08:54:10;;;;;;;5.07;3.67;;;1.90;99.90;;;;;;5022047;28;20691;-46
2021/01/14 08:56:36;;;;;;;10.57;4.00;;;2.00;99.90;;;;;;5022369;28;20308;-46
2021/01/14 08:59:13;;;;;;;4.53;3.43;;;2.00;99.90;;;;;;5014563;28;20188;-48
2021/01/14 09:01:39;;;;;;;5.47;4.13;;;2.00;99.90;;;;;;5022122;28;20890;-46
2021/01/14 09:04:06;;;;;;;6.23;3.53;;;2.00;99.90;;;;;;5008461;28;20219;-47
2021/01/14 09:06:40;;;;;;;7.90;3.90;;;2.00;99.90;;;;;;5009236;28;20759;-50
2021/01/14 09:09:25;;;;;;;5.53;3.70;;;2.00;99.90;;;;;;5023332;28;20243;-46
2021/01/14 09:11:50;;;;;;;5.43;3.43;;;1.90;99.90;;;;;;5022555;28;20277;-48
2021/01/14 09:14:18;;;;;;;3.80;3.37;;;1.90;99.90;;;;;;5020228;28;20375;-53
2021/01/14 09:16:45;;;;;;;7.03;3.73;;;1.90;99.90;;;;;;5016029;28;20168;-46
2021/01/14 09:19:18;;;;;;;5.97;4.07;;;1.90;99.90;;;;;;5015355;28;20225;-47
2021/01/14 09:21:44;;;;;;;8.07;4.77;;;1.90;99.90;;;;;;5024617;28;20210;-49
2021/01/14 09:24:12;;;;;;;6.10;4.07;;;1.90;99.90;;;;;;5026767;28;20212;-47
2021/01/14 09:26:40;;;;;;;5.93;3.90;;;1.80;99.90;;;;;;5018028;28;20192;-46
2021/01/14 09:29:07;;;;;;;7.90;4.10;;;1.90;99.90;;;;;;5018296;28;20183;-46
2021/01/14 09:31:35;;;;;;;7.33;4.60;;;1.90;99.90;;;;;;5009227;28;20191;-46
2021/01/14 09:34:02;;;;;;;6.53;4.37;;;1.90;99.90;;;;;;5016825;28;20204;-47
2021/01/14 09:36:28;;;;;;;9.60;4.70;;;1.90;99.90;;;;;;5014990;28;20217;-51
2021/01/14 09:38:59;;;;;;;6.63;4.50;;;1.90;99.90;;;;;;5020473;28;20944;-46
2021/01/14 09:41:35;;;;;;;7.60;4.60;;;1.90;99.90;;;;;;5016351;28;20194;-50
2021/01/14 09:44:05;;;;;;;8.90;4.87;;;1.90;99.90;;;;;;5021665;28;20687;-46
2021/01/14 09:46:51;;;;;;;8.13;4.70;;;1.90;99.90;;;;;;5009914;28;20195;-51
2021/01/14 09:49:21;;;;;;;10.20;4.57;;;1.90;99.90;;;;;;4999125;28;20295;-52
2021/01/14 09:51:50;;;;;;;5.50;4.13;;;1.90;99.90;;;;;;5006177;28;20183;-49
2021/01/14 09:54:17;;;;;;;13.07;4.50;;;1.90;99.90;;;;;;5018244;28;20243;-49
2021/01/14 09:56:46;;;;;;;5.30;3.87;;;1.90;99.90;;;;;;5012469;28;20187;-47
2021/01/14 09:59:22;;;;;;;5.60;4.60;;;1.90;99.90;;;;;;5019180;28;20176;-49
2021/01/14 10:02:00;;;;;;;7.47;4.30;;;1.90;99.90;;;;;;5009894;28;20186;-49
2021/01/14 10:04:27;;;;;;;6.37;3.87;;;1.90;99.90;;;;;;5009520;28;20187;-51
2021/01/14 10:06:57;;;;;;;6.13;3.73;;;1.90;99.90;;;;;;5011738;28;20196;-46
2021/01/14 10:09:23;;;;;;;7.63;4.13;;;1.90;99.90;;;;;;5004558;28;20180;-50
2021/01/14 10:11:50;;;;;;;7.57;4.40;;;1.90;99.90;;;;;;5010216;28;20184;-47
2021/01/14 10:14:20;;;;;;;5.60;4.07;;;1.90;99.90;;;;;;5022726;28;20198;-48
2021/01/14 10:16:47;;;;;;;7.20;4.17;;;1.90;99.90;;;;;;5016794;28;21373;-47
2021/01/14 10:19:15;;;;;;;7.13;4.23;;;1.90;99.90;;;;;;5018970;28;20195;-47
2021/01/14 10:21:42;;;;;;;7.47;4.47;;;1.90;99.90;;;;;;5001583;28;20188;-47
2021/01/14 10:24:26;;;;;;;6.87;4.50;;;1.90;99.90;;;;;;5006634;28;20229;-46
2021/01/14 10:26:52;;;;;;;7.53;4.57;;;1.90;99.90;;;;;;5002484;28;20196;-48
2021/01/14 10:29:38;;;;;;;7.77;4.50;;;1.90;99.90;;;;;;5013410;28;20645;-48
2021/01/14 10:32:06;;;;;;;10.73;4.57;;;1.90;99.90;;;;;;5022894;28;20178;-49
2021/01/14 10:34:52;;;;;;;9.93;4.60;;;1.90;99.90;;;;;;5010383;28;20199;-51
2021/01/14 10:37:31;;;;;;;11.03;5.43;;;1.90;99.90;;;;;;5004002;28;20668;-47
2021/01/14 10:40:03;;;;;;;9.83;4.40;;;1.90;99.90;;;;;;5020376;28;20625;-46
2021/01/14 10:42:34;;;;;;;8.00;4.73;;;1.90;99.90;;;;;;5015360;28;20207;-47
2021/01/14 10:45:03;;;;;;;9.33;4.67;;;1.90;99.90;;;;;;5022347;28;20183;-47
2021/01/14 10:47:28;;;;;;;8.20;4.63;;;1.90;99.90;;;;;;5016288;28;20552;-51
2021/01/14 10:49:54;;;;;;;7.13;4.63;;;1.90;99.90;;;;;;5016735;28;20195;-48
2021/01/14 10:52:20;;;;;;;6.80;4.17;;;1.90;99.90;;;;;;5009298;28;20214;-48
2021/01/14 10:55:03;;;;;;;5.53;3.97;;;1.90;99.90;;;;;;5008820;28;20318;-47
2021/01/14 10:57:47;;;;;;;8.07;4.60;;;1.90;99.90;;;;;;5003226;28;20187;-49
2021/01/14 11:00:15;;;;;;;9.27;4.00;;;1.90;99.90;;;;;;5013614;28;20244;-51
2021/01/14 11:02:41;;;;;;;4.43;3.67;;;1.90;99.90;;;;;;5019510;28;20317;-46
2021/01/14 11:05:08;;;;;;;8.90;4.87;;;1.90;99.90;;;;;;5018121;28;20278;-46
2021/01/14 11:07:34;;;;;;;7.40;4.10;;;1.90;99.90;;;;;;4997161;28;20255;-47
2021/01/14 11:10:06;;;;;;;5.10;4.30;;;1.90;99.90;;;;;;5013972;28;20183;-50
2021/01/14 11:12:31;;;;;;;9.87;5.03;;;1.90;99.90;;;;;;5010405;28;20289;-50
2021/01/14 11:14:58;;;;;;;9.23;5.00;;;2.00;99.90;;;;;;5015969;28;20218;-47
2021/01/14 11:17:24;;;;;;;5.50;4.50;;;1.90;99.90;;;;;;5017959;28;20763;-52
2021/01/14 11:19:51;;;;;;;6.90;5.20;;;1.90;99.90;;;;;;5017755;28;21980;-48
2021/01/14 11:22:16;;;;;;;6.80;4.53;;;1.90;99.90;;;;;;5020437;28;20234;-53
2021/01/14 11:24:42;;;;;;;10.07;4.63;;;2.00;99.90;;;;;;5003715;28;20212;-47
2021/01/14 11:27:07;;;;;;;7.97;4.73;;;2.00;99.90;;;;;;5009532;28;20184;-47
2021/01/14 11:29:33;;;;;;;7.33;4.93;;;2.00;99.90;;;;;;4997530;28;20202;-48
2021/01/14 11:32:00;;;;;;;6.57;4.40;;;1.90;99.90;;;;;;5023318;28;20187;-49
2021/01/14 11:34:25;;;;;;;7.30;4.63;;;1.90;99.90;;;;;;5003974;28;20523;-51
2021/01/14 11:36:51;;;;;;;8.40;5.13;;;1.90;99.90;;;;;;5010887;28;20190;-48
2021/01/14 11:39:16;;;;;;;11.63;4.83;;;1.90;99.90;;;;;;5011364;28;20986;-49
2021/01/14 11:41:42;;;;;;;5.30;4.30;;;1.90;99.90;;;;;;5014695;28;20171;-47
2021/01/14 11:44:07;;;;;;;7.17;5.37;;;1.90;99.90;;;;;;5023761;28;20548;-47
2021/01/14 11:46:33;;;;;;;7.30;4.63;;;1.90;99.90;;;;;;5015906;28;20183;-49
2021/01/14 11:48:58;;;;;;;7.20;4.80;;;1.90;99.90;;;;;;5023669;28;20282;-47
2021/01/14 11:51:24;;;;;;;7.27;4.83;;;1.90;99.90;;;;;;5017048;28;20261;-48
2021/01/14 11:53:49;;;;;;;7.40;4.73;;;1.90;99.90;;;;;;5009999;28;20350;-49
2021/01/14 11:56:15;;;;;;;6.30;4.63;;;1.90;99.90;;;;;;5014917;28;20713;-51
2021/01/14 11:58:41;;;;;;;7.17;4.73;;;1.90;99.90;;;;;;5007687;28;20207;-48
2021/01/14 12:01:06;;;;;;;6.50;4.40;;;1.90;99.90;;;;;;5003615;28;20299;-51
2021/01/14 12:03:33;;;;;;;6.07;4.07;;;1.90;99.90;;;;;;5000813;28;20216;-50
2021/01/14 12:05:58;;;;;;;5.83;4.23;;;1.90;99.90;;;;;;5006734;28;20269;-47
2021/01/14 12:08:24;;;;;;;7.80;4.90;;;1.90;99.90;;;;;;5011962;28;20636;-47
2021/01/14 12:10:49;;;;;;;8.07;3.90;;;1.80;99.90;;;;;;5008940;28;20183;-47
2021/01/14 12:13:15;;;;;;;6.13;4.00;;;1.80;99.90;;;;;;5017093;28;20202;-48
2021/01/14 12:15:40;;;;;;;7.67;4.40;;;1.80;99.90;;;;;;5018506;28;20176;-50
2021/01/14 12:18:06;;;;;;;6.10;4.10;;;1.80;99.90;;;;;;5017858;28;20253;-47
2021/01/14 12:20:31;;;;;;;4.93;4.43;;;1.90;99.90;;;;;;5013280;28;20219;-52
2021/01/14 12:22:57;;;;;;;10.10;4.70;;;1.90;99.90;;;;;;5017104;28;20692;-47
2021/01/14 12:25:22;;;;;;;8.73;4.70;;;1.90;99.90;;;;;;5001548;28;20196;-49
2021/01/14 12:27:48;;;;;;;6.80;4.20;;;1.90;99.90;;;;;;5011216;28;20175;-48
2021/01/14 12:30:14;;;;;;;8.47;4.50;;;1.90;99.90;;;;;;5020819;28;20186;-50
2021/01/14 12:32:40;;;;;;;6.23;4.60;;;1.90;99.90;;;;;;5013432;28;23364;-49
2021/01/14 12:35:07;;;;;;;7.70;4.80;;;1.90;99.90;;;;;;5021636;28;20187;-49
2021/01/14 12:37:34;;;;;;;7.87;4.50;;;1.90;99.90;;;;;;5008362;28;20190;-47
2021/01/14 12:40:00;;;;;;;9.17;4.47;;;1.90;99.90;;;;;;5008920;28;20219;-50
2021/01/14 12:42:26;;;;;;;8.67;4.17;;;1.80;99.90;;;;;;5009490;28;20264;-48
2021/01/14 12:44:52;;;;;;;6.93;5.07;;;1.90;99.90;;;;;;5009527;28;20246;-48
2021/01/14 12:47:17;;;;;;;5.97;4.07;;;1.90;99.90;;;;;;5017967;28;20865;-47
2021/01/14 12:49:43;;;;;;;6.17;4.20;;;1.90;99.90;;;;;;5012411;28;20187;-52
2021/01/14 12:52:08;;;;;;;5.70;4.37;;;1.90;99.90;;;;;;5003673;28;21169;-53
2021/01/14 12:54:34;;;;;;;5.70;4.23;;;1.90;99.90;;;;;;5019244;28;20214;-53
2021/01/14 12:56:59;;;;;;;7.00;5.17;;;1.90;99.90;;;;;;5004840;28;20301;-53
2021/01/14 12:59:25;;;;;;;5.80;4.40;;;1.90;99.90;;;;;;5005582;28;20253;-51
2021/01/14 13:01:50;;;;;;;5.60;4.17;;;1.90;99.90;;;;;;5020192;28;20650;-55
2021/01/14 13:04:16;;;;;;;8.63;4.10;;;1.90;99.90;;;;;;5006724;28;20198;-50
2021/01/14 13:06:43;;;;;;;5.93;4.60;;;2.00;99.90;;;;;;5003032;28;20306;-53